createdAt,value
2022-09-12T00:00:51.248Z,12.27
2022-09-12T00:03:19.267Z,14.57
2022-09-12T00:05:48.650Z,14.20
2022-09-12T00:08:16.472Z,16.60
2022-09-12T00:10:45.647Z,12.05
2022-09-12T00:13:13.529Z,14.07
2022-09-12T00:15:42.942Z,13.52
2022-09-12T00:18:16.563Z,13.55
2022-09-12T00:20:45.066Z,15.57
2022-09-12T00:23:13.414Z,16.30
2022-09-12T00:25:44.643Z,16.38
2022-09-12T00:28:13.207Z,15.07
2022-09-12T00:30:42.930Z,12.85
2022-09-12T00:33:12.793Z,12.47
2022-09-12T00:35:45.090Z,11.63
2022-09-12T00:38:13.777Z,11.68
2022-09-12T00:40:42.525Z,15.70
2022-09-12T00:43:14.782Z,12.30
2022-09-12T00:45:43.111Z,11.00
2022-09-12T00:48:30.273Z,10.70
2022-09-12T00:50:58.114Z,14.73
2022-09-12T00:53:26.779Z,9.45
2022-09-12T00:55:55.628Z,11.38
2022-09-12T00:58:26.630Z,10.77
2022-09-12T01:00:54.599Z,10.18
2022-09-12T01:03:24.853Z,14.00
2022-09-12T01:06:02.256Z,9.07
2022-09-12T01:08:30.216Z,11.45
2022-09-12T01:10:58.599Z,11.52
2022-09-12T01:13:27.010Z,10.55
2022-09-12T01:15:55.834Z,10.68
2022-09-12T01:18:32.598Z,13.45
2022-09-12T01:21:15.798Z,12.13
2022-09-12T01:24:25.113Z,10.40
2022-09-12T01:27:16.921Z,13.60
2022-09-12T01:30:05.668Z,12.90
2022-09-12T01:32:48.105Z,13.25
2022-09-12T01:35:24.265Z,12.88
2022-09-12T01:37:59.837Z,11.57
2022-09-12T01:40:33.405Z,11.48
2022-09-12T01:43:10.311Z,12.23
2022-09-12T01:45:45.065Z,11.15
2022-09-12T01:48:20.502Z,12.18
2022-09-12T01:50:53.551Z,9.93
2022-09-12T01:53:25.388Z,14.32
2022-09-12T01:55:58.037Z,11.63
2022-09-12T01:58:30.407Z,13.98
2022-09-12T02:01:03.978Z,11.77
2022-09-12T02:03:41.006Z,13.10
2022-09-12T02:06:16.178Z,12.05
2022-09-12T02:08:48.598Z,13.40
2022-09-12T02:11:16.624Z,13.93
2022-09-12T02:13:49.255Z,13.48
2022-09-12T02:16:22.831Z,13.38
2022-09-12T02:18:55.006Z,15.52
2022-09-12T02:21:25.325Z,14.88
2022-09-12T02:23:58.007Z,11.93
2022-09-12T02:26:33.622Z,19.05
2022-09-12T02:29:01.643Z,13.95
2022-09-12T02:31:34.862Z,14.60
2022-09-12T02:34:13.541Z,14.27
2022-09-12T02:36:51.079Z,17.50
2022-09-12T02:39:20.896Z,15.45
2022-09-12T02:41:49.215Z,13.95
2022-09-12T02:44:17.038Z,13.43
2022-09-12T02:46:49.155Z,17.35
2022-09-12T02:49:19.176Z,15.50
2022-09-12T02:51:47.777Z,13.52
2022-09-12T02:54:17.966Z,14.52
2022-09-12T02:56:47.049Z,14.95
2022-09-12T02:59:19.718Z,14.10
2022-09-12T03:02:02.755Z,15.38
2022-09-12T03:04:48.191Z,12.68
2022-09-12T03:07:26.162Z,14.88
2022-09-12T03:10:03.842Z,15.50
2022-09-12T03:12:48.051Z,15.35
2022-09-12T03:15:28.575Z,13.38
2022-09-12T03:20:45.528Z,14.95
2022-09-12T03:23:25.591Z,13.25
2022-09-12T03:25:58.189Z,13.73
2022-09-12T03:28:26.114Z,14.45
2022-09-12T03:30:58.322Z,15.57
2022-09-12T03:33:27.087Z,13.93
2022-09-12T03:35:56.995Z,14.30
2022-09-12T03:38:24.982Z,13.95
2022-09-12T03:40:54.792Z,17.67
2022-09-12T03:43:22.822Z,13.68
2022-09-12T03:45:52.823Z,15.50
2022-09-12T03:48:20.728Z,16.08
2022-09-12T03:50:48.474Z,15.25
2022-09-12T03:53:17.685Z,14.98
2022-09-12T03:55:45.555Z,13.60
2022-09-12T03:58:13.385Z,19.30
2022-09-12T04:00:42.899Z,16.75
2022-09-12T04:03:11.009Z,14.07
2022-09-12T04:05:38.809Z,18.73
2022-09-12T04:08:06.601Z,13.38
2022-09-12T04:10:35.697Z,17.08
2022-09-12T04:13:03.597Z,14.65
2022-09-12T04:15:31.369Z,29.88
2022-09-12T04:18:03.660Z,18.40
2022-09-12T04:20:33.462Z,13.15
2022-09-12T04:23:01.281Z,33.00
2022-09-12T04:25:31.325Z,18.27
2022-09-12T04:28:00.528Z,19.05
2022-09-12T04:30:28.415Z,32.10
2022-09-12T04:32:56.174Z,18.15
2022-09-12T04:35:23.906Z,47.90
2022-09-12T04:37:51.723Z,41.15
2022-09-12T04:40:19.952Z,35.47
2022-09-12T04:42:47.783Z,101.18
2022-09-12T04:45:16.925Z,37.45
2022-09-12T04:47:46.458Z,70.88
2022-09-12T04:50:14.896Z,29.50
2022-09-12T04:52:42.910Z,18.77
2022-09-12T04:55:10.804Z,21.98
2022-09-12T04:57:38.571Z,24.42
2022-09-12T05:00:07.594Z,33.08
2022-09-12T05:02:36.706Z,31.60
2022-09-12T05:05:04.892Z,76.75
2022-09-12T05:07:33.078Z,147.98
2022-09-12T05:10:01.014Z,47.30
2022-09-12T05:12:28.983Z,82.40
2022-09-12T05:14:56.874Z,53.92
2022-09-12T05:17:24.791Z,29.73
2022-09-12T05:19:54.038Z,50.83
2022-09-12T05:22:22.849Z,17.60
2022-09-12T05:24:54.036Z,70.82
2022-09-12T05:27:21.847Z,40.95
2022-09-12T05:29:49.639Z,21.83
2022-09-12T05:32:17.409Z,46.67
2022-09-12T05:34:45.328Z,22.50
2022-09-12T05:37:14.505Z,32.13
2022-09-12T05:39:42.366Z,18.48
2022-09-12T05:42:10.506Z,29.27
2022-09-12T05:44:38.286Z,44.15
2022-09-12T05:47:06.423Z,63.00
2022-09-12T05:49:36.076Z,25.55
2022-09-12T05:52:04.266Z,26.33
2022-09-12T05:54:34.333Z,33.33
2022-09-12T05:57:02.126Z,32.47
2022-09-12T05:59:30.066Z,33.20
2022-09-12T06:01:57.865Z,16.75
2022-09-12T06:04:26.413Z,22.23
2022-09-12T06:06:54.332Z,16.83
2022-09-12T06:09:22.766Z,23.17
2022-09-12T06:11:51.998Z,21.13
2022-09-12T06:14:20.509Z,32.47
2022-09-12T06:16:49.891Z,13.35
2022-09-12T06:19:19.630Z,16.90
2022-09-12T06:21:48.321Z,15.82
2022-09-12T06:24:16.503Z,16.55
2022-09-12T06:26:44.488Z,21.00
2022-09-12T06:29:13.749Z,15.70
2022-09-12T06:31:44.008Z,26.50
2022-09-12T06:34:14.346Z,24.45
2022-09-12T06:36:44.445Z,27.17
2022-09-12T06:39:14.261Z,25.38
2022-09-12T06:41:44.182Z,40.25
2022-09-12T06:44:16.673Z,19.25
2022-09-12T06:46:45.353Z,24.33
2022-09-12T06:49:13.575Z,20.60
2022-09-12T06:51:43.152Z,13.25
2022-09-12T06:54:13.623Z,15.93
2022-09-12T06:56:41.488Z,24.10
2022-09-12T06:59:09.550Z,15.02
2022-09-12T07:01:40.068Z,25.45
2022-09-12T07:04:08.143Z,12.10
2022-09-12T07:06:38.661Z,17.95
2022-09-12T07:11:37.153Z,18.63
2022-09-12T07:14:07.159Z,18.85
2022-09-12T07:16:36.596Z,21.05
2022-09-12T07:19:07.543Z,20.48
2022-09-12T07:21:39.823Z,28.27
2022-09-12T07:24:09.837Z,14.35
2022-09-12T07:26:38.189Z,21.67
2022-09-12T07:29:32.721Z,15.55
2022-09-12T07:31:54.567Z,13.07
2022-09-12T07:34:23.747Z,13.40
2022-09-12T07:36:51.519Z,13.38
2022-09-12T07:39:20.033Z,14.07
2022-09-12T07:41:47.847Z,12.18
2022-09-12T07:44:15.617Z,14.23
2022-09-12T07:46:43.521Z,12.23
2022-09-12T07:49:13.561Z,12.68
2022-09-12T07:51:43.392Z,14.77
2022-09-12T07:54:11.536Z,15.10
2022-09-12T07:56:39.692Z,12.27
2022-09-12T07:59:07.868Z,14.52
2022-09-12T08:01:36.371Z,19.05
2022-09-12T08:04:05.226Z,13.30
2022-09-12T08:06:36.084Z,15.88
2022-09-12T08:09:07.806Z,13.10
2022-09-12T08:11:37.714Z,12.75
2022-09-12T08:14:06.008Z,15.60
2022-09-12T08:16:35.084Z,11.05
2022-09-12T08:19:04.284Z,13.93
2022-09-12T08:21:33.533Z,12.98
2022-09-12T08:24:03.613Z,14.05
2022-09-12T08:26:33.872Z,16.95
2022-09-12T08:29:01.955Z,17.88
2022-09-12T08:31:31.870Z,18.35
2022-09-12T08:34:00.790Z,18.42
2022-09-12T08:36:29.686Z,17.92
2022-09-12T08:39:00.151Z,15.13
2022-09-12T08:41:35.093Z,15.95
2022-09-12T08:44:27.273Z,17.15
2022-09-12T08:47:15.172Z,14.23
2022-09-12T08:49:58.037Z,19.00
2022-09-12T08:52:30.745Z,15.88
2022-09-12T08:54:58.691Z,14.95
2022-09-12T08:57:27.842Z,19.65
2022-09-12T08:59:56.829Z,16.50
2022-09-12T09:02:56.687Z,14.82
2022-09-12T09:05:38.495Z,14.07
2022-09-12T09:08:18.792Z,16.70
2022-09-12T09:10:51.955Z,14.98
2022-09-12T09:13:52.074Z,15.18
2022-09-12T09:16:25.432Z,12.95
2022-09-12T09:18:55.825Z,14.85
2022-09-12T09:21:30.181Z,14.30
2022-09-12T09:24:04.002Z,13.82
2022-09-12T09:26:41.623Z,17.05
2022-09-12T09:29:17.773Z,14.85
2022-09-12T09:31:49.027Z,14.75
2022-09-12T09:34:20.490Z,15.18
2022-09-12T09:36:53.077Z,14.02
2022-09-12T09:39:37.670Z,15.02
2022-09-12T09:42:19.550Z,13.55
2022-09-12T09:44:49.371Z,13.82
2022-09-12T09:47:19.289Z,14.15
2022-09-12T09:49:47.574Z,11.52
2022-09-12T09:52:18.497Z,14.35
2022-09-12T09:54:52.781Z,16.33
2022-09-12T09:57:41.483Z,15.85
2022-09-12T10:00:27.192Z,14.07
2022-09-12T10:03:30.820Z,15.10
2022-09-12T10:06:01.879Z,13.25
2022-09-12T10:08:32.167Z,16.30
2022-09-12T10:11:03.630Z,11.90
2022-09-12T10:13:41.740Z,12.68
2022-09-12T10:16:22.519Z,12.43
2022-09-12T10:18:52.405Z,12.70
2022-09-12T10:21:30.827Z,13.10
2022-09-12T10:24:21.832Z,11.93
2022-09-12T10:26:56.748Z,14.13
2022-09-12T10:29:28.600Z,12.82
2022-09-12T10:31:59.724Z,11.38
2022-09-12T10:34:32.454Z,10.77
2022-09-12T10:37:05.703Z,11.25
2022-09-12T10:39:36.040Z,9.93
2022-09-12T10:42:05.489Z,9.38
2022-09-12T10:44:35.447Z,10.23
2022-09-12T10:47:23.999Z,10.95
2022-09-12T10:49:51.844Z,11.27
2022-09-12T10:52:24.339Z,9.60
2022-09-12T10:54:52.453Z,8.60
2022-09-12T10:57:42.929Z,10.93
2022-09-12T11:02:58.507Z,9.60
2022-09-12T11:05:40.157Z,8.85
2022-09-12T11:08:19.870Z,9.85
2022-09-12T11:10:57.070Z,8.60
2022-09-12T11:13:40.667Z,8.57
2022-09-12T11:16:19.971Z,7.80
2022-09-12T11:19:09.136Z,9.65
2022-09-12T11:21:58.462Z,7.63
2022-09-12T11:24:54.093Z,6.97
2022-09-12T11:27:39.666Z,6.38
2022-09-12T11:30:12.042Z,9.52
2022-09-12T11:32:56.986Z,6.05
2022-09-12T11:35:29.597Z,6.82
2022-09-12T11:38:15.963Z,6.93
2022-09-12T11:40:48.631Z,6.28
2022-09-12T11:43:26.896Z,6.22
2022-09-12T11:45:55.521Z,6.28
2022-09-12T11:48:36.543Z,7.85
2022-09-12T11:51:16.969Z,7.30
2022-09-12T11:56:18.449Z,7.53
2022-09-12T11:58:52.787Z,4.68
2022-09-12T12:01:26.074Z,6.40
2022-09-12T12:03:55.469Z,5.18
2022-09-12T12:06:31.238Z,5.67
2022-09-12T12:08:59.654Z,4.00
2022-09-12T12:11:31.880Z,4.97
2022-09-12T12:14:03.939Z,5.00
2022-09-12T12:16:34.624Z,5.50
2022-09-12T12:19:10.006Z,5.18
2022-09-12T12:21:44.534Z,5.32
2022-09-12T12:24:18.824Z,6.15
2022-09-12T12:26:59.436Z,4.80
2022-09-12T12:29:48.154Z,5.65
2022-09-12T12:32:26.632Z,5.82
2022-09-12T12:35:38.998Z,6.85
2022-09-12T12:38:28.258Z,4.57
2022-09-12T12:41:34.881Z,8.75
2022-09-12T12:44:37.624Z,4.60
2022-09-12T12:47:20.686Z,7.07
2022-09-12T12:49:54.328Z,5.57
2022-09-12T12:52:22.608Z,6.22
2022-09-12T12:54:57.364Z,4.65
2022-09-12T12:57:50.347Z,4.43
2022-09-12T13:00:32.116Z,6.60
2022-09-12T13:03:08.543Z,5.07
2022-09-12T13:05:43.028Z,6.72
2022-09-12T13:08:28.791Z,5.15
2022-09-12T13:11:01.000Z,5.78
2022-09-12T13:13:35.606Z,5.90
2022-09-12T13:16:04.024Z,5.18
2022-09-12T13:18:44.528Z,4.72
2022-09-12T13:21:15.499Z,5.35
2022-09-12T13:23:44.303Z,5.13
2022-09-12T13:26:14.030Z,7.68
2022-09-12T13:28:41.936Z,6.15
2022-09-12T13:31:17.863Z,4.68
2022-09-12T13:33:51.323Z,4.75
2022-09-12T13:37:16.156Z,5.30
2022-09-12T13:39:49.678Z,5.90
2022-09-12T13:42:39.770Z,4.13
2022-09-12T13:45:14.245Z,4.50
2022-09-12T13:47:44.350Z,4.95
2022-09-12T13:50:20.414Z,6.32
2022-09-12T13:52:54.119Z,4.88
2022-09-12T13:55:31.423Z,6.93
2022-09-12T13:58:01.860Z,8.10
2022-09-12T14:00:32.162Z,6.00
2022-09-12T14:05:57.411Z,5.68
2022-09-12T14:08:26.010Z,4.95
2022-09-12T14:10:54.547Z,4.68
2022-09-12T14:13:24.802Z,4.40
2022-09-12T14:18:25.143Z,4.80
2022-09-12T14:20:57.228Z,7.20
2022-09-12T14:23:31.042Z,5.88
2022-09-12T14:26:01.399Z,9.45
2022-09-12T14:28:30.187Z,5.40
2022-09-12T14:31:05.167Z,5.75
2022-09-12T14:33:35.322Z,3.88
2022-09-12T14:36:13.218Z,4.50
2022-09-12T14:38:43.828Z,6.35
2022-09-12T14:41:14.672Z,4.97
2022-09-12T14:43:47.098Z,5.22
2022-09-12T14:46:21.416Z,5.50
2022-09-12T14:48:53.016Z,5.53
2022-09-12T14:51:26.900Z,4.53
2022-09-12T14:53:55.200Z,5.25
2022-09-12T14:56:37.890Z,5.53
2022-09-12T14:59:28.669Z,5.55
2022-09-12T15:02:29.065Z,4.57
2022-09-12T15:07:53.714Z,4.25
2022-09-12T15:10:25.401Z,6.90
2022-09-12T15:13:14.062Z,6.55
2022-09-12T15:15:43.715Z,4.97
2022-09-12T15:18:12.081Z,5.32
2022-09-12T15:20:41.783Z,4.43
2022-09-12T15:23:18.308Z,8.52
2022-09-12T15:25:46.368Z,4.05
2022-09-12T15:28:18.884Z,4.93
2022-09-12T15:30:49.545Z,3.72
2022-09-12T15:33:17.670Z,6.15
2022-09-12T15:35:45.577Z,3.85
2022-09-12T15:38:14.713Z,6.22
2022-09-12T15:40:43.021Z,6.25
2022-09-12T15:43:13.478Z,3.75
2022-09-12T15:45:43.460Z,4.68
2022-09-12T15:48:11.512Z,5.10
2022-09-12T15:50:39.295Z,6.68
2022-09-12T15:53:07.103Z,4.47
2022-09-12T15:55:37.363Z,7.80
2022-09-12T16:00:35.651Z,6.25
2022-09-12T16:03:04.089Z,6.53
2022-09-12T16:05:32.355Z,3.90
2022-09-12T16:08:00.187Z,4.65
2022-09-12T16:10:30.199Z,4.20
2022-09-12T16:13:00.439Z,4.55
2022-09-12T16:15:28.336Z,5.00
2022-09-12T16:17:56.221Z,4.72
2022-09-12T16:20:24.386Z,5.90
2022-09-12T16:22:53.251Z,4.78
2022-09-12T16:25:21.200Z,4.20
2022-09-12T16:27:51.480Z,4.32
2022-09-12T16:31:09.000Z,4.78
2022-09-12T16:33:39.870Z,5.55
2022-09-12T16:36:09.985Z,4.75
2022-09-12T16:38:42.240Z,5.75
2022-09-12T16:41:10.442Z,4.75
2022-09-12T16:43:38.993Z,6.53
2022-09-12T16:46:08.499Z,7.25
2022-09-12T16:48:38.921Z,5.65
2022-09-12T16:51:07.739Z,5.80
2022-09-12T16:53:37.098Z,4.63
2022-09-12T16:56:05.226Z,6.88
2022-09-12T16:58:35.631Z,6.18
2022-09-12T17:01:08.293Z,5.15
2022-09-12T17:03:37.880Z,4.85
2022-09-12T17:06:07.762Z,5.85
2022-09-12T17:08:37.178Z,5.35
2022-09-12T17:11:12.425Z,6.57
2022-09-12T17:14:10.514Z,4.78
2022-09-12T17:16:50.774Z,8.07
2022-09-12T17:21:50.237Z,8.00
2022-09-12T17:24:18.653Z,6.00
2022-09-12T17:26:46.554Z,8.77
2022-09-12T17:29:15.139Z,6.22
2022-09-12T17:31:45.245Z,7.78
2022-09-12T17:34:14.539Z,8.40
2022-09-12T17:36:45.139Z,8.98
2022-09-12T17:41:42.870Z,6.22
2022-09-12T17:44:12.460Z,7.45
2022-09-12T17:46:40.783Z,7.80
2022-09-12T17:49:11.715Z,7.40
2022-09-12T17:51:40.930Z,6.05
2022-09-12T17:54:12.870Z,7.45
2022-09-12T17:56:41.085Z,6.63
2022-09-12T17:59:11.307Z,7.45
2022-09-12T18:01:56.962Z,6.38
2022-09-12T18:04:24.859Z,5.97
2022-09-12T18:06:53.164Z,8.05
2022-09-12T18:09:25.061Z,7.40
2022-09-12T18:11:53.746Z,10.55
2022-09-12T18:14:22.023Z,10.90
2022-09-12T18:16:50.422Z,8.25
2022-09-12T18:19:18.604Z,9.55
2022-09-12T18:21:46.765Z,8.98
2022-09-12T18:24:14.568Z,10.20
2022-09-12T18:26:44.389Z,8.75
2022-09-12T18:29:13.461Z,10.57
2022-09-12T18:31:41.341Z,8.45
2022-09-12T18:34:12.721Z,9.25
2022-09-12T18:36:41.333Z,8.65
2022-09-12T18:39:09.560Z,7.20
2022-09-12T18:41:37.765Z,7.95
2022-09-12T18:44:07.893Z,9.85
2022-09-12T18:46:36.687Z,8.88
2022-09-12T18:49:05.549Z,9.20
2022-09-12T18:51:36.008Z,7.60
2022-09-12T18:56:37.612Z,9.45
2022-09-12T18:59:08.214Z,11.55
2022-09-12T19:01:37.846Z,10.30
2022-09-12T19:04:06.197Z,8.70
2022-09-12T19:06:35.665Z,8.68
2022-09-12T19:09:07.514Z,6.65
2022-09-12T19:11:37.825Z,7.57
2022-09-12T19:14:08.354Z,10.50
2022-09-12T19:19:06.308Z,9.52
2022-09-12T19:21:35.309Z,7.47
2022-09-12T19:24:05.533Z,9.73
2022-09-12T19:26:33.901Z,9.38
2022-09-12T19:29:02.971Z,8.38
2022-09-12T19:31:33.152Z,8.57
2022-09-12T19:34:02.052Z,9.60
2022-09-12T19:36:47.314Z,10.52
2022-09-12T19:39:16.514Z,11.52
2022-09-12T19:41:44.598Z,11.82
2022-09-12T19:44:12.733Z,9.43
2022-09-12T19:46:42.149Z,10.00
2022-09-12T19:49:12.212Z,9.10
2022-09-12T19:51:40.203Z,12.43
2022-09-12T19:54:08.277Z,12.98
2022-09-12T19:56:36.314Z,11.05
2022-09-12T19:59:04.265Z,13.65
2022-09-12T20:01:32.539Z,12.13
2022-09-12T20:04:02.147Z,11.20
2022-09-12T20:06:30.172Z,9.33
2022-09-12T20:08:58.845Z,11.27
2022-09-12T20:11:26.766Z,10.00
2022-09-12T20:13:55.150Z,11.52
2022-09-12T20:16:25.417Z,9.98
2022-09-12T20:21:31.011Z,11.77
2022-09-12T20:24:02.284Z,9.88
2022-09-12T20:26:31.104Z,9.75
2022-09-12T20:28:58.905Z,12.15
2022-09-12T20:31:27.003Z,12.40
2022-09-12T20:33:55.968Z,13.18
2022-09-12T20:36:25.326Z,12.70
2022-09-12T20:38:56.587Z,12.40
2022-09-12T20:41:26.057Z,11.73
2022-09-12T20:43:55.484Z,12.70
2022-09-12T20:46:24.435Z,11.65
2022-09-12T20:48:52.727Z,10.65
2022-09-12T20:51:21.182Z,12.02
2022-09-12T20:53:54.547Z,13.70
2022-09-12T20:56:23.178Z,10.07
2022-09-12T20:58:51.785Z,10.23
2022-09-12T21:01:19.819Z,12.52
2022-09-12T21:03:47.791Z,9.20
2022-09-12T21:06:17.371Z,11.13
2022-09-12T21:08:45.994Z,11.27
2022-09-12T21:11:15.667Z,11.10
2022-09-12T21:13:43.701Z,11.77
2022-09-12T21:16:13.336Z,11.57
2022-09-12T21:18:41.839Z,10.32
2022-09-12T21:21:11.468Z,12.95
2022-09-12T21:23:39.985Z,12.03
2022-09-12T21:26:08.622Z,10.23
2022-09-12T21:28:38.060Z,10.35
2022-09-12T21:31:06.236Z,9.18
2022-09-12T21:33:34.131Z,10.38
2022-09-12T21:36:03.445Z,11.02
2022-09-12T21:38:31.573Z,11.80
2022-09-12T21:41:07.681Z,11.55
2022-09-12T21:43:37.053Z,13.50
2022-09-12T21:46:05.974Z,15.82
2022-09-12T21:48:34.634Z,11.77
2022-09-12T21:51:02.665Z,15.73
2022-09-12T21:53:30.999Z,10.60
2022-09-12T21:56:02.361Z,13.38
2022-09-12T21:58:30.301Z,12.23
2022-09-12T22:00:59.731Z,14.27
2022-09-12T22:03:27.629Z,11.38
2022-09-12T22:05:59.509Z,11.82
2022-09-12T22:08:27.872Z,12.40
2022-09-12T22:10:59.476Z,12.85
2022-09-12T22:13:27.917Z,11.65
2022-09-12T22:15:56.089Z,11.07
2022-09-12T22:18:25.371Z,12.48
2022-09-12T22:21:00.443Z,12.43
2022-09-12T22:23:45.881Z,11.88
2022-09-12T22:26:14.286Z,11.07
2022-09-12T22:28:42.953Z,12.00
2022-09-12T22:31:12.124Z,9.70
2022-09-12T22:33:41.536Z,10.27
2022-09-12T22:36:09.931Z,10.48
2022-09-12T22:38:38.097Z,16.65
2022-09-12T22:41:06.748Z,12.50
2022-09-12T22:43:35.741Z,14.77
2022-09-12T22:46:08.100Z,10.25
2022-09-12T22:48:36.450Z,9.95
2022-09-12T22:51:06.387Z,12.65
2022-09-12T22:53:34.499Z,11.45
2022-09-12T22:56:02.767Z,12.35
2022-09-12T22:58:30.618Z,10.77
2022-09-12T23:00:58.504Z,12.80
2022-09-12T23:03:26.368Z,13.07
2022-09-12T23:05:54.242Z,12.68
2022-09-12T23:08:23.519Z,11.30
2022-09-12T23:10:51.265Z,11.43
2022-09-12T23:13:19.125Z,10.88
2022-09-12T23:15:46.966Z,13.35
2022-09-12T23:18:14.801Z,12.13
2022-09-12T23:20:42.578Z,11.85
2022-09-12T23:23:10.828Z,10.43
2022-09-12T23:25:40.001Z,11.18
2022-09-12T23:28:07.826Z,13.40
2022-09-12T23:30:37.956Z,9.85
2022-09-12T23:33:05.811Z,9.48
2022-09-12T23:35:33.618Z,10.73
2022-09-12T23:38:01.380Z,12.43
2022-09-12T23:40:29.219Z,12.23
2022-09-12T23:42:58.421Z,10.60
2022-09-12T23:45:26.259Z,11.68
2022-09-12T23:47:54.149Z,10.57
2022-09-12T23:50:22.007Z,10.65
2022-09-12T23:52:49.844Z,12.25
2022-09-12T23:55:17.745Z,10.25
2022-09-12T23:57:45.558Z,9.40
